Time;durP1;ratioP1;P1;durP2;ratioP2;P2;SDS_P1;SDS_P2;PMS_P1;PMS_P2;Temp;Humidity;BMP_temperature;BMP_pressure;BME280_temperature;BME280_humidity;BME280_pressure;Samples;Min_cycle;Max_cycle;Signal;HPM_P1;HPM_P2
2023/11/02 00:02:03;;;;;;;1.63;1.27;;;;;;;13.75;51.30;95858.31;5085179;28;20881;-69
2023/11/02 00:04:29;;;;;;;1.40;1.07;;;;;;;13.78;51.44;95852.66;5078097;28;20423;-72
2023/11/02 00:06:55;;;;;;;1.90;1.30;;;;;;;13.73;51.32;95849.03;5070899;28;20185;-71
2023/11/02 00:09:31;;;;;;;5.53;1.60;;;;;;;13.76;51.52;95845.94;5076357;28;20612;-71
2023/11/02 00:12:02;;;;;;;3.00;1.40;;;;;;;13.81;51.55;95831.16;5070266;28;20444;-73
2023/11/02 00:14:48;;;;;;;1.47;1.10;;;;;;;13.82;51.21;95824.09;5069113;28;20917;-71
2023/11/02 00:17:28;;;;;;;2.90;1.30;;;;;;;13.83;51.55;95825.69;5068135;28;20957;-72
2023/11/02 00:19:54;;;;;;;1.63;1.33;;;;;;;13.83;51.24;95810.69;5074313;28;21395;-70
2023/11/02 00:22:20;;;;;;;2.90;1.30;;;;;;;13.85;51.36;95814.94;5074133;28;20444;-72
2023/11/02 00:24:48;;;;;;;5.00;1.17;;;;;;;13.78;51.03;95801.81;5046193;28;20207;-73
2023/11/02 00:27:13;;;;;;;1.73;1.40;;;;;;;13.74;51.41;95803.22;5074353;28;20913;-72
2023/11/02 00:29:39;;;;;;;2.30;1.07;;;;;;;13.71;51.62;95787.88;5070065;28;20433;-70
2023/11/02 00:32:05;;;;;;;1.50;1.30;;;;;;;13.75;51.25;95778.50;5069633;28;20206;-70
2023/11/02 00:34:31;;;;;;;1.67;1.47;;;;;;;13.63;51.35;95781.78;5075808;28;20469;-70
2023/11/02 00:36:59;;;;;;;3.00;1.20;;;;;;;13.51;51.73;95768.47;5070006;28;20178;-71
2023/11/02 00:39:25;;;;;;;1.67;1.27;;;;;;;13.53;51.83;95768.25;5069512;28;20804;-70
2023/11/02 00:41:50;;;;;;;2.43;1.40;;;;;;;13.48;51.80;95757.56;5052497;28;20440;-73
2023/11/02 00:44:17;;;;;;;6.90;1.87;;;;;;;13.36;51.60;95744.97;5072118;28;20226;-69
2023/11/02 00:46:44;;;;;;;1.83;1.17;;;;;;;13.34;52.33;95744.38;5069628;28;20528;-69
2023/11/02 00:49:17;;;;;;;2.23;1.40;;;;;;;13.19;52.45;95739.34;5071038;28;20427;-71
2023/11/02 00:51:43;;;;;;;2.00;1.40;;;;;;;13.24;52.57;95741.34;5043872;28;20449;-72
2023/11/02 00:54:52;;;;;;;3.63;1.60;;;;;;;13.14;53.08;95748.84;5072855;28;20496;-71
2023/11/02 00:57:21;;;;;;;2.27;1.60;;;;;;;13.17;52.68;95751.88;5074599;28;20364;-70
2023/11/02 00:59:46;;;;;;;1.80;1.60;;;;;;;13.22;52.50;95740.78;5078032;28;20413;-70
2023/11/02 01:02:14;;;;;;;3.30;1.27;;;;;;;13.19;52.12;95736.72;5076097;28;20491;-71
2023/11/02 01:04:42;;;;;;;1.87;1.43;;;;;;;13.20;52.67;95740.16;5073506;28;20206;-69
2023/11/02 01:07:10;;;;;;;2.23;1.50;;;;;;;13.29;52.30;95732.88;5069388;28;21114;-72
2023/11/02 01:09:49;;;;;;;2.50;1.63;;;;;;;13.35;52.08;95724.13;5075960;28;20420;-71
2023/11/02 01:12:33;;;;;;;1.80;1.53;;;;;;;13.33;52.09;95718.28;5068621;28;20535;-76
2023/11/02 01:15:00;;;;;;;2.80;1.40;;;;;;;13.40;51.94;95713.03;5051265;28;20456;-69
2023/11/02 01:17:31;;;;;;;2.83;1.70;;;;;;;13.36;52.06;95702.88;5068748;28;20425;-70
2023/11/02 01:20:05;;;;;;;2.40;1.33;;;;;;;13.29;51.91;95699.47;5069064;28;20436;-71
2023/11/02 01:22:32;;;;;;;1.70;1.20;;;;;;;13.15;52.13;95682.09;5070566;28;20833;-70
2023/11/02 01:25:11;;;;;;;3.63;1.47;;;;;;;13.17;52.34;95672.19;5080343;28;20412;-70
2023/11/02 01:27:37;;;;;;;2.30;1.23;;;;;;;13.15;52.18;95656.59;5067691;28;20432;-71
2023/11/02 01:30:10;;;;;;;9.67;1.67;;;;;;;13.20;52.42;95654.16;5075411;28;20860;-73
2023/11/02 01:32:36;;;;;;;4.27;1.47;;;;;;;13.14;52.24;95641.03;5049396;28;20198;-71
2023/11/02 01:35:08;;;;;;;3.70;1.47;;;;;;;13.17;52.12;95636.16;5069769;28;20552;-71
2023/11/02 01:37:34;;;;;;;1.87;1.47;;;;;;;13.16;52.37;95629.28;5078961;28;20693;-70
2023/11/02 01:40:28;;;;;;;3.43;1.17;;;;;;;13.16;52.16;95618.78;5073947;28;20425;-70
2023/11/02 01:42:54;;;;;;;1.70;1.33;;;;;;;13.18;51.82;95619.34;5050202;28;20424;-72
2023/11/02 01:45:24;;;;;;;1.57;1.07;;;;;;;13.07;52.10;95620.00;5067310;28;20431;-73
2023/11/02 01:47:55;;;;;;;5.57;1.40;;;;;;;13.05;52.06;95607.06;5051585;28;20217;-70
2023/11/02 01:50:31;;;;;;;5.40;1.60;;;;;;;13.08;51.92;95599.78;5068037;28;20417;-72
2023/11/02 01:53:19;;;;;;;1.50;1.30;;;;;;;13.10;52.09;95603.00;5068513;28;20478;-70
2023/11/02 01:56:00;;;;;;;2.37;1.40;;;;;;;13.00;51.88;95596.34;5061513;28;20459;-73
2023/11/02 01:58:32;;;;;;;3.30;1.43;;;;;;;12.93;52.56;95592.13;5061323;28;20409;-71
2023/11/02 02:01:08;;;;;;;1.60;1.20;;;;;;;12.96;52.23;95589.91;5067950;28;20460;-71
2023/11/02 02:03:44;;;;;;;2.53;1.33;;;;;;;12.91;52.40;95584.44;5066054;28;20420;-71
2023/11/02 02:06:41;;;;;;;3.57;1.20;;;;;;;12.99;52.58;95592.09;5049779;28;20427;-73
2023/11/02 02:09:37;;;;;;;3.53;1.43;;;;;;;12.93;52.30;95574.53;5061825;28;21173;-72
2023/11/02 02:12:30;;;;;;;2.57;1.50;;;;;;;12.70;53.19;95561.84;5061903;28;20940;-70
2023/11/02 02:15:04;;;;;;;3.30;1.40;;;;;;;12.74;53.33;95563.84;5068700;28;20545;-71
2023/11/02 02:17:36;;;;;;;3.40;1.40;;;;;;;12.73;52.84;95564.06;5077331;28;20428;-71
2023/11/02 02:20:07;;;;;;;5.70;1.40;;;;;;;12.69;53.64;95561.06;5071892;28;20427;-70
2023/11/02 02:22:44;;;;;;;2.23;1.30;;;;;;;12.86;53.04;95542.19;5077479;28;20468;-71
2023/11/02 02:25:19;;;;;;;2.70;1.40;;;;;;;12.88;53.12;95542.78;5044458;28;20430;-70
2023/11/02 02:28:12;;;;;;;1.80;1.40;;;;;;;12.83;53.37;95532.91;5073144;28;20424;-70
2023/11/02 02:30:46;;;;;;;2.30;1.57;;;;;;;12.86;53.18;95534.28;5073875;28;20933;-73
2023/11/02 02:33:35;;;;;;;1.83;1.50;;;;;;;12.95;53.22;95533.06;5050913;28;20461;-74
2023/11/02 02:36:14;;;;;;;1.30;1.20;;;;;;;12.87;53.40;95514.88;5050188;28;20518;-70
2023/11/02 02:38:46;;;;;;;2.27;1.90;;;;;;;12.97;53.56;95519.72;5083251;28;20975;-71
2023/11/02 02:41:15;;;;;;;2.00;1.60;;;;;;;12.87;53.52;95510.44;5069331;28;20562;-70
2023/11/02 02:43:41;;;;;;;1.83;1.63;;;;;;;12.92;53.47;95504.56;5078925;28;20438;-69
2023/11/02 02:46:07;;;;;;;1.70;1.47;;;;;;;12.95;53.62;95480.50;5068103;28;20500;-70
2023/11/02 02:48:37;;;;;;;3.10;1.60;;;;;;;13.00;53.67;95496.44;5031869;28;20456;-69
2023/11/02 02:51:03;;;;;;;4.40;1.80;;;;;;;12.94;54.01;95472.78;5067738;28;20436;-70
2023/11/02 02:53:32;;;;;;;1.97;1.70;;;;;;;13.00;53.83;95470.13;5067460;28;20494;-71
2023/11/02 02:56:03;;;;;;;1.40;1.30;;;;;;;12.77;54.38;95473.28;5069747;28;20464;-70
2023/11/02 02:58:29;;;;;;;3.10;1.70;;;;;;;12.80;54.64;95500.97;5051754;28;20812;-70
2023/11/02 03:00:55;;;;;;;8.30;1.70;;;;;;;12.85;54.43;95475.66;5043614;28;20440;-72
2023/11/02 03:03:23;;;;;;;4.67;1.80;;;;;;;12.89;54.66;95502.34;5072337;28;20471;-71
2023/11/02 03:05:50;;;;;;;3.27;2.00;;;;;;;12.98;54.30;95452.97;5070173;28;20183;-71
2023/11/02 03:08:16;;;;;;;3.30;1.73;;;;;;;13.08;54.20;95461.19;5064015;28;20419;-70
2023/11/02 03:10:44;;;;;;;3.80;1.77;;;;;;;13.02;54.73;95460.22;5067063;28;20553;-71
2023/11/02 03:13:12;;;;;;;2.50;1.80;;;;;;;13.11;54.42;95462.59;5067643;28;20271;-70
2023/11/02 03:15:41;;;;;;;2.73;1.60;;;;;;;13.16;54.20;95483.81;5067223;28;21059;-70
2023/11/02 03:18:11;;;;;;;2.90;1.83;;;;;;;13.19;54.42;95496.56;5067633;28;20417;-71
2023/11/02 03:20:38;;;;;;;3.20;1.50;;;;;;;13.24;54.22;95438.84;5066968;28;20831;-71
2023/11/02 03:23:20;;;;;;;1.70;1.60;;;;;;;13.17;54.81;95495.94;5067562;28;20477;-69
2023/11/02 03:26:00;;;;;;;2.07;1.60;;;;;;;13.24;54.69;95473.03;5051056;28;20408;-69
2023/11/02 03:28:44;;;;;;;5.53;2.00;;;;;;;13.30;54.55;95464.31;5052931;28;20428;-70
2023/11/02 03:31:27;;;;;;;2.60;1.80;;;;;;;13.38;54.46;95434.31;5061476;28;20471;-71
2023/11/02 03:34:04;;;;;;;3.77;1.80;;;;;;;13.42;54.52;95447.88;5053386;28;20424;-70
2023/11/02 03:36:44;;;;;;;2.53;1.83;;;;;;;13.46;54.91;95449.88;5078860;28;21037;-71
2023/11/02 03:39:16;;;;;;;3.53;1.60;;;;;;;13.44;54.96;95461.63;5075445;28;21003;-70
2023/11/02 03:42:10;;;;;;;6.23;1.63;;;;;;;13.43;55.41;95452.13;5072017;28;20472;-71
2023/11/02 03:44:57;;;;;;;2.50;1.80;;;;;;;13.41;55.49;95451.53;5069971;28;20417;-70
2023/11/02 03:47:52;;;;;;;2.10;1.40;;;;;;;13.36;55.84;95437.16;5059827;28;20427;-70
2023/11/02 03:50:39;;;;;;;7.23;2.27;;;;;;;13.39;56.47;95414.06;5060271;28;20820;-70
2023/11/02 03:53:13;;;;;;;3.00;1.60;;;;;;;13.45;56.37;95400.88;5071392;28;20424;-71
2023/11/02 03:56:12;;;;;;;1.83;1.60;;;;;;;13.47;56.56;95369.13;5072433;28;20448;-69
2023/11/02 03:59:15;;;;;;;2.10;1.90;;;;;;;13.47;57.12;95345.44;5063202;28;20456;-70
2023/11/02 04:01:55;;;;;;;3.43;1.73;;;;;;;13.51;57.29;95347.41;5073762;28;20474;-72
2023/11/02 04:04:29;;;;;;;1.70;1.60;;;;;;;13.49;56.48;95353.91;5052528;28;20890;-70
2023/11/02 04:07:01;;;;;;;4.53;1.70;;;;;;;13.41;56.60;95330.50;5070128;28;20425;-71
2023/11/02 04:09:38;;;;;;;4.37;1.53;;;;;;;13.38;56.77;95315.94;5073405;28;20474;-70
2023/11/02 04:12:25;;;;;;;1.90;1.60;;;;;;;13.40;57.33;95286.78;5060981;28;20439;-70
2023/11/02 04:14:54;;;;;;;1.87;1.60;;;;;;;13.40;57.47;95265.75;5051646;28;20471;-72
2023/11/02 04:17:20;;;;;;;2.07;1.63;;;;;;;13.41;57.47;95230.53;5070171;28;20413;-70
2023/11/02 04:19:46;;;;;;;2.13;2.00;;;;;;;13.46;57.50;95217.53;5069923;28;20424;-69
2023/11/02 04:22:11;;;;;;;2.53;1.83;;;;;;;13.46;57.23;95215.69;5062389;28;20206;-72
2023/11/02 04:24:40;;;;;;;2.50;1.63;;;;;;;13.43;57.32;95208.22;5072233;28;20170;-71
2023/11/02 04:27:06;;;;;;;1.63;1.53;;;;;;;13.39;57.67;95211.50;5052409;28;20183;-71
2023/11/02 04:29:31;;;;;;;4.53;1.60;;;;;;;13.41;57.61;95201.59;5070127;28;20520;-70
2023/11/02 04:31:57;;;;;;;1.53;1.43;;;;;;;13.40;57.26;95189.44;5072583;28;20221;-70
2023/11/02 04:34:22;;;;;;;2.33;1.70;;;;;;;13.46;57.35;95178.06;5070842;28;20179;-70
2023/11/02 04:36:47;;;;;;;3.30;1.80;;;;;;;13.43;56.99;95181.13;5051731;28;20761;-70
2023/11/02 04:39:14;;;;;;;2.13;1.67;;;;;;;13.37;57.33;95188.03;5070118;28;20262;-70
2023/11/02 04:41:39;;;;;;;1.70;1.50;;;;;;;13.39;57.27;95182.56;5077821;28;20202;-69
2023/11/02 04:44:05;;;;;;;1.87;1.70;;;;;;;13.37;57.10;95172.25;5070111;28;20506;-72
2023/11/02 04:46:30;;;;;;;2.17;1.60;;;;;;;13.41;56.98;95183.16;5052580;28;20539;-72
2023/11/02 04:48:56;;;;;;;2.93;1.33;;;;;;;13.35;56.90;95190.91;5065099;28;20187;-74
2023/11/02 04:51:21;;;;;;;2.40;1.80;;;;;;;13.44;57.42;95180.09;5070421;28;20293;-70
2023/11/02 04:53:47;;;;;;;2.17;1.60;;;;;;;13.47;57.14;95171.78;5066410;28;20187;-73
2023/11/02 04:56:12;;;;;;;1.73;1.63;;;;;;;13.46;57.20;95189.38;5072139;28;20263;-71
2023/11/02 04:58:38;;;;;;;2.50;1.50;;;;;;;13.54;57.23;95158.56;5068649;28;20182;-69
2023/11/02 05:01:03;;;;;;;10.53;2.00;;;;;;;13.50;57.20;95148.47;5063128;28;20565;-70
2023/11/02 05:03:29;;;;;;;1.60;1.30;;;;;;;13.36;57.62;95147.75;5071545;28;20174;-71
2023/11/02 05:05:54;;;;;;;4.03;1.57;;;;;;;13.46;57.54;95154.38;5068261;28;20263;-69
2023/11/02 05:08:22;;;;;;;2.20;1.60;;;;;;;13.52;56.99;95156.13;5068495;28;20699;-69
2023/11/02 05:10:47;;;;;;;1.57;1.47;;;;;;;13.57;57.12;95137.84;5067880;28;20263;-71
2023/11/02 05:13:12;;;;;;;3.00;1.37;;;;;;;13.51;57.33;95122.94;5051012;28;20425;-72
2023/11/02 05:15:38;;;;;;;3.50;1.83;;;;;;;13.56;57.64;95112.56;5069864;28;20662;-69
2023/11/02 05:18:03;;;;;;;1.60;1.50;;;;;;;13.48;57.45;95097.88;5068369;28;20566;-71
2023/11/02 05:20:29;;;;;;;1.97;1.60;;;;;;;13.38;57.72;95094.94;5064345;28;20189;-69
2023/11/02 05:22:54;;;;;;;5.03;1.20;;;;;;;13.33;57.45;95074.56;5067698;28;20178;-73
2023/11/02 05:25:20;;;;;;;2.50;1.20;;;;;;;13.42;57.24;95061.91;5071468;28;20191;-71
2023/11/02 05:27:45;;;;;;;3.93;1.30;;;;;;;13.45;57.26;95047.53;5067322;28;20217;-72
2023/11/02 05:30:11;;;;;;;2.20;1.63;;;;;;;13.21;57.23;95029.00;5076476;28;20251;-72
2023/11/02 05:32:38;;;;;;;1.77;1.30;;;;;;;13.34;56.96;95031.47;5068511;28;20236;-70
2023/11/02 05:35:04;;;;;;;1.37;1.27;;;;;;;13.40;57.07;95026.34;5068546;28;20201;-69
2023/11/02 05:37:29;;;;;;;1.60;1.50;;;;;;;13.41;56.68;95013.00;5069571;28;20527;-69
2023/11/02 05:39:55;;;;;;;2.33;1.40;;;;;;;13.26;56.87;95008.06;5067857;28;20516;-70
2023/11/02 05:42:20;;;;;;;4.03;1.40;;;;;;;13.41;56.56;94999.84;5069564;28;20209;-72
2023/11/02 05:44:46;;;;;;;2.70;1.30;;;;;;;13.31;55.81;95016.13;5075026;28;20810;-69
2023/11/02 05:47:11;;;;;;;1.73;1.20;;;;;;;13.31;56.36;95016.13;5071010;28;20678;-69
2023/11/02 05:49:37;;;;;;;2.00;1.20;;;;;;;13.37;56.18;95024.94;5068072;28;20190;-71
2023/11/02 05:52:03;;;;;;;2.70;1.30;;;;;;;13.44;55.98;95022.25;5071223;28;20841;-69
2023/11/02 05:54:28;;;;;;;3.23;1.50;;;;;;;13.45;55.33;95018.59;5068993;28;20277;-70
2023/11/02 05:56:53;;;;;;;5.03;1.63;;;;;;;13.38;55.82;95042.34;5069481;28;20566;-72
2023/11/02 05:59:19;;;;;;;2.17;1.60;;;;;;;13.36;55.65;95047.00;5071460;28;20212;-71
2023/11/02 06:01:44;;;;;;;1.77;1.20;;;;;;;13.45;55.60;95058.84;5056340;28;20708;-71
2023/11/02 06:04:10;;;;;;;9.73;2.00;;;;;;;13.52;55.72;95079.81;5049315;28;20193;-69
2023/11/02 06:06:35;;;;;;;3.03;1.73;;;;;;;13.61;55.60;95080.31;5051867;28;20186;-73
2023/11/02 06:09:02;;;;;;;3.10;1.77;;;;;;;13.66;56.10;95104.94;5066312;28;20178;-70
2023/11/02 06:11:28;;;;;;;2.00;1.80;;;;;;;13.60;55.99;95099.75;5067651;28;20387;-74
2023/11/02 06:13:53;;;;;;;4.03;1.63;;;;;;;13.54;56.81;95106.72;5067170;28;20594;-72
2023/11/02 06:16:21;;;;;;;1.93;1.40;;;;;;;13.55;56.84;95116.22;5067458;28;20276;-70
2023/11/02 06:18:48;;;;;;;3.40;1.03;;;;;;;13.61;56.16;95139.00;5048408;28;20190;-71
2023/11/02 06:21:13;;;;;;;4.47;1.30;;;;;;;13.70;56.98;95154.50;5048356;28;20489;-71
2023/11/02 06:23:39;;;;;;;1.30;1.10;;;;;;;13.72;57.67;95158.50;5076247;28;20915;-72
2023/11/02 06:26:04;;;;;;;1.40;1.20;;;;;;;13.71;57.42;95161.38;5071061;28;20171;-70
2023/11/02 06:28:29;;;;;;;1.40;1.07;;;;;;;13.76;57.57;95153.59;5067015;28;20267;-70
2023/11/02 06:30:55;;;;;;;1.53;1.27;;;;;;;13.77;57.96;95155.22;5071931;28;20292;-72
2023/11/02 06:33:25;;;;;;;3.67;1.90;;;;;;;13.78;58.37;95162.09;5072706;28;20181;-71
2023/11/02 06:35:50;;;;;;;1.90;1.33;;;;;;;13.75;59.11;95167.78;5046280;28;20274;-71
2023/11/02 06:38:17;;;;;;;2.80;1.57;;;;;;;13.79;58.67;95163.69;5068012;28;20460;-70
2023/11/02 06:40:43;;;;;;;2.47;1.40;;;;;;;13.80;58.96;95160.03;5049794;28;20193;-70
2023/11/02 06:43:08;;;;;;;2.60;1.80;;;;;;;13.79;59.38;95164.50;5077971;28;20408;-72
2023/11/02 06:45:34;;;;;;;3.57;1.87;;;;;;;13.76;59.96;95153.59;5070694;28;20263;-72
2023/11/02 06:47:59;;;;;;;3.63;1.70;;;;;;;13.76;60.40;95138.63;5068657;28;20186;-70
2023/11/02 06:50:25;;;;;;;3.10;1.73;;;;;;;13.74;60.13;95126.69;5072072;28;20272;-71
2023/11/02 06:52:50;;;;;;;5.43;2.30;;;;;;;13.72;61.02;95115.59;5076139;28;20217;-70
2023/11/02 06:55:16;;;;;;;3.50;1.73;;;;;;;13.74;61.52;95110.91;5071951;28;20343;-71
2023/11/02 06:57:41;;;;;;;3.63;2.10;;;;;;;13.73;61.85;95109.31;5070119;28;20210;-69
2023/11/02 07:00:09;;;;;;;4.00;1.60;;;;;;;13.74;62.16;95121.44;5061882;28;20290;-71
2023/11/02 07:02:36;;;;;;;4.40;2.10;;;;;;;13.64;62.43;95128.03;5073836;28;20201;-72
2023/11/02 07:05:03;;;;;;;6.03;1.57;;;;;;;13.69;62.58;95126.56;5079214;28;20793;-72
2023/11/02 07:07:28;;;;;;;5.63;2.00;;;;;;;13.69;62.57;95131.84;5072193;28;20429;-73
2023/11/02 07:09:54;;;;;;;2.33;1.90;;;;;;;13.63;62.50;95123.78;5070053;28;20433;-70
2023/11/02 07:12:19;;;;;;;1.93;1.70;;;;;;;13.64;62.58;95116.72;5071429;28;20202;-68
2023/11/02 07:14:48;;;;;;;5.53;1.87;;;;;;;13.62;62.50;95109.03;5078207;28;20315;-74
2023/11/02 07:17:15;;;;;;;3.60;2.20;;;;;;;13.63;62.82;95107.22;5074406;28;20702;-70
2023/11/02 07:19:41;;;;;;;2.60;2.17;;;;;;;13.65;62.65;95118.31;5078078;28;20428;-69
2023/11/02 07:22:06;;;;;;;5.67;2.30;;;;;;;13.69;62.60;95116.84;5071057;28;20448;-72
2023/11/02 07:24:31;;;;;;;2.80;1.80;;;;;;;13.70;62.13;95104.50;5055892;28;20178;-72
2023/11/02 07:26:57;;;;;;;8.23;2.30;;;;;;;13.63;61.88;95096.69;5074687;28;20216;-72
2023/11/02 07:29:23;;;;;;;3.10;1.80;;;;;;;13.65;62.10;95098.06;5059167;28;20198;-71
2023/11/02 07:31:48;;;;;;;3.10;1.70;;;;;;;13.58;61.98;95089.47;5068398;28;20214;-71
2023/11/02 07:34:13;;;;;;;2.70;1.70;;;;;;;13.56;62.29;95090.69;5082499;28;20198;-70
2023/11/02 07:36:39;;;;;;;2.80;1.70;;;;;;;13.42;61.83;95080.34;5069940;28;20678;-71
2023/11/02 07:39:05;;;;;;;2.23;1.77;;;;;;;13.30;61.63;95082.91;5077172;28;20550;-72
2023/11/02 07:41:30;;;;;;;1.90;1.50;;;;;;;13.29;61.92;95062.88;5071874;28;20206;-73
2023/11/02 07:43:55;;;;;;;4.80;2.00;;;;;;;13.36;61.70;95060.94;5061108;28;20767;-72
2023/11/02 07:46:21;;;;;;;5.43;1.83;;;;;;;13.35;62.17;95054.13;5072772;28;20169;-72
2023/11/02 07:48:46;;;;;;;2.57;1.60;;;;;;;13.36;62.29;95042.53;5073758;28;20257;-73
2023/11/02 07:51:13;;;;;;;3.70;1.90;;;;;;;13.29;61.69;95039.22;5073811;28;20214;-71
2023/11/02 07:53:39;;;;;;;2.90;1.60;;;;;;;13.29;62.09;95028.69;5072731;28;20179;-73
2023/11/02 07:56:05;;;;;;;4.57;3.40;;;;;;;13.25;62.06;95024.09;5075339;28;20993;-71
2023/11/02 07:58:30;;;;;;;5.47;3.67;;;;;;;13.30;62.32;95025.03;5070238;28;20674;-71
2023/11/02 08:00:55;;;;;;;2.43;1.80;;;;;;;13.41;62.23;95026.16;5070083;28;20202;-72
2023/11/02 08:03:21;;;;;;;4.33;2.23;;;;;;;13.50;61.84;95026.59;5070382;28;20521;-70
2023/11/02 08:05:46;;;;;;;7.43;3.13;;;;;;;13.53;62.08;95031.44;5070606;28;20182;-71
2023/11/02 08:08:12;;;;;;;6.23;2.67;;;;;;;13.55;62.34;95026.75;5070096;28;20189;-72
2023/11/02 08:10:37;;;;;;;6.53;1.87;;;;;;;13.45;62.13;95022.03;5047165;28;20646;-71
2023/11/02 08:13:03;;;;;;;3.40;2.23;;;;;;;13.45;62.24;95013.34;5069615;28;20695;-71
2023/11/02 08:15:29;;;;;;;5.63;3.00;;;;;;;13.19;63.21;95010.78;5080952;28;20632;-73
2023/11/02 08:17:55;;;;;;;6.57;2.50;;;;;;;13.12;63.76;95011.91;5074095;28;20553;-72
2023/11/02 08:20:21;;;;;;;5.57;2.03;;;;;;;13.14;64.12;95005.41;5069610;28;20424;-72
2023/11/02 08:22:47;;;;;;;4.57;2.50;;;;;;;13.24;63.41;95006.72;5051967;28;20206;-74
2023/11/02 08:25:12;;;;;;;2.43;2.03;;;;;;;13.35;63.33;95019.09;5075810;28;20474;-74
2023/11/02 08:27:38;;;;;;;6.53;2.70;;;;;;;13.42;63.25;95022.47;5070437;28;20185;-72
2023/11/02 08:30:05;;;;;;;4.47;2.47;;;;;;;13.49;63.15;95011.84;5078184;28;20595;-71
2023/11/02 08:32:30;;;;;;;3.33;2.60;;;;;;;13.51;63.12;95009.78;5065611;28;20198;-71
2023/11/02 08:34:56;;;;;;;3.13;1.70;;;;;;;13.40;63.08;95010.56;5072503;28;20460;-70
2023/11/02 08:37:23;;;;;;;4.60;1.90;;;;;;;13.45;63.01;95010.72;5079330;28;20553;-71
2023/11/02 08:39:48;;;;;;;11.07;2.60;;;;;;;13.49;62.91;95009.22;5052234;28;20553;-71
2023/11/02 08:42:14;;;;;;;5.77;1.90;;;;;;;13.39;63.56;94988.69;5078717;28;20444;-72
2023/11/02 08:44:40;;;;;;;8.00;1.83;;;;;;;13.39;63.03;94985.25;5074120;28;20178;-72
2023/11/02 08:47:06;;;;;;;3.73;1.80;;;;;;;13.45;63.15;94984.41;5052212;28;20208;-72
2023/11/02 08:49:31;;;;;;;2.13;1.93;;;;;;;13.49;63.19;94990.78;5079619;28;20412;-72
2023/11/02 08:51:57;;;;;;;4.80;1.97;;;;;;;13.44;63.57;94972.28;5073069;28;20925;-71
2023/11/02 08:54:22;;;;;;;3.57;1.80;;;;;;;13.50;63.29;94976.63;5053089;28;20558;-71
2023/11/02 08:56:48;;;;;;;6.40;2.10;;;;;;;13.44;63.37;94973.06;5073982;28;20182;-72
2023/11/02 08:59:14;;;;;;;5.90;2.00;;;;;;;13.43;63.14;94968.81;5068285;28;20201;-72
2023/11/02 09:01:39;;;;;;;3.30;2.20;;;;;;;13.52;63.20;94972.75;5077828;28;20448;-72
2023/11/02 09:04:05;;;;;;;5.67;2.20;;;;;;;13.57;63.35;94972.06;5072872;28;20194;-73
2023/11/02 09:06:30;;;;;;;5.90;1.83;;;;;;;13.60;63.17;94969.00;5071355;28;20183;-71
2023/11/02 09:08:56;;;;;;;7.60;2.40;;;;;;;13.66;63.24;94969.91;5077732;28;20220;-73
2023/11/02 09:11:22;;;;;;;3.60;1.90;;;;;;;13.74;63.02;94969.59;5057715;28;20690;-72
2023/11/02 09:13:47;;;;;;;6.03;2.13;;;;;;;13.81;63.00;94966.84;5077959;28;20421;-72
2023/11/02 09:16:13;;;;;;;4.60;2.20;;;;;;;13.73;62.82;94967.19;5069472;28;20226;-71
2023/11/02 09:18:39;;;;;;;5.13;2.00;;;;;;;13.78;63.21;94956.75;5070022;28;20591;-71
2023/11/02 09:21:05;;;;;;;2.30;2.10;;;;;;;13.78;63.20;94951.50;5075547;28;20206;-72
2023/11/02 09:23:34;;;;;;;1.97;1.80;;;;;;;13.76;63.53;94972.78;5051965;28;20190;-71
2023/11/02 09:26:01;;;;;;;2.47;1.90;;;;;;;13.81;63.67;94978.16;5076545;28;20452;-72
2023/11/02 09:28:27;;;;;;;3.10;2.00;;;;;;;13.83;63.03;94975.31;5075796;28;20507;-72
2023/11/02 09:30:52;;;;;;;9.13;2.27;;;;;;;13.83;63.17;94977.97;5068432;28;20524;-72
2023/11/02 09:33:21;;;;;;;4.10;2.30;;;;;;;13.83;63.24;95001.66;5079294;28;20193;-72
2023/11/02 09:35:46;;;;;;;2.50;1.80;;;;;;;13.74;63.11;95018.78;5069441;28;20210;-69
2023/11/02 09:38:13;;;;;;;3.00;1.67;;;;;;;13.80;63.45;95023.16;5074682;28;20864;-74
2023/11/02 09:40:39;;;;;;;5.67;2.83;;;;;;;13.87;63.54;95034.38;5068125;28;20477;-70
2023/11/02 09:43:05;;;;;;;3.30;2.00;;;;;;;13.90;63.79;95043.66;5069140;28;21006;-72
2023/11/02 09:45:32;;;;;;;2.90;2.27;;;;;;;13.95;63.86;95033.25;5056959;28;20192;-71
2023/11/02 09:47:59;;;;;;;2.50;2.23;;;;;;;14.02;63.71;95038.41;5076154;28;20428;-72
2023/11/02 09:50:25;;;;;;;2.00;1.80;;;;;;;14.01;64.18;95040.25;5077661;28;20427;-71
2023/11/02 09:52:50;;;;;;;2.43;1.93;;;;;;;14.03;63.95;95034.75;5075656;28;20480;-72
2023/11/02 09:55:16;;;;;;;1.37;1.20;;;;;;;14.01;64.20;95042.06;5059569;28;20844;-71
2023/11/02 09:57:41;;;;;;;3.57;1.53;;;;;;;14.02;64.33;95030.50;5051179;28;20243;-71
2023/11/02 10:00:08;;;;;;;2.20;1.50;;;;;;;13.92;64.69;95041.63;5083606;28;20185;-72
2023/11/02 10:02:34;;;;;;;4.27;1.40;;;;;;;13.88;65.14;95037.81;5050710;28;20666;-71
2023/11/02 10:05:00;;;;;;;2.23;1.47;;;;;;;13.96;64.71;95035.66;5075948;28;20520;-72
2023/11/02 10:07:26;;;;;;;11.90;1.70;;;;;;;13.93;64.81;95038.75;5069221;28;20519;-72
2023/11/02 10:09:52;;;;;;;1.20;1.00;;;;;;;14.02;64.98;95041.03;5034166;28;20183;-72
2023/11/02 10:12:18;;;;;;;2.37;1.30;;;;;;;14.06;65.21;95021.91;5069137;28;20217;-70
2023/11/02 10:14:43;;;;;;;2.43;1.47;;;;;;;14.05;65.38;95024.78;5047116;28;20845;-73
2023/11/02 10:17:12;;;;;;;4.10;1.30;;;;;;;14.02;65.96;95014.72;5042128;28;20182;-72
2023/11/02 10:19:37;;;;;;;4.17;1.33;;;;;;;13.95;66.04;95010.38;5058250;28;20269;-71
2023/11/02 10:22:04;;;;;;;3.03;1.00;;;;;;;14.02;65.85;95009.44;5053201;28;20527;-70
2023/11/02 10:24:34;;;;;;;1.40;1.23;;;;;;;13.93;65.92;94993.16;5070261;28;20798;-70
2023/11/02 10:27:01;;;;;;;1.57;1.00;;;;;;;14.12;65.73;94993.88;5082642;28;20451;-72
2023/11/02 10:29:28;;;;;;;1.77;1.20;;;;;;;14.19;65.65;94989.31;5055577;28;20553;-71
2023/11/02 10:31:54;;;;;;;1.40;1.30;;;;;;;14.23;65.57;94977.28;5068620;28;20452;-72
2023/11/02 10:34:20;;;;;;;3.63;1.30;;;;;;;14.20;65.98;94980.38;5069330;28;20424;-71
2023/11/02 10:36:50;;;;;;;5.27;1.17;;;;;;;14.21;65.91;94966.19;5050721;28;20904;-71
2023/11/02 10:39:19;;;;;;;3.97;0.97;;;;;;;14.22;65.84;94969.59;5074872;28;20435;-72
2023/11/02 10:41:56;;;;;;;2.20;0.90;;;;;;;14.15;66.07;94953.91;5084437;28;20523;-72
2023/11/02 10:44:30;;;;;;;1.40;0.90;;;;;;;14.25;65.83;94946.22;5070386;28;20422;-74
2023/11/02 10:47:04;;;;;;;1.17;0.87;;;;;;;14.07;66.73;94951.63;5079294;28;20513;-71
2023/11/02 10:49:33;;;;;;;1.20;0.80;;;;;;;14.33;66.05;94937.19;5086370;28;20420;-72
2023/11/02 10:51:59;;;;;;;4.10;1.40;;;;;;;14.33;65.91;94941.66;5084320;28;20522;-71
2023/11/02 10:54:39;;;;;;;1.60;0.90;;;;;;;14.18;66.00;94932.38;5082198;28;20906;-73
2023/11/02 10:57:17;;;;;;;1.10;0.80;;;;;;;14.25;66.17;94953.34;5060003;28;20201;-72
2023/11/02 10:59:44;;;;;;;4.13;1.10;;;;;;;14.24;65.86;94941.22;5057199;28;20420;-71
2023/11/02 11:02:17;;;;;;;1.97;0.90;;;;;;;14.23;65.42;94931.69;5066227;28;20483;-71
2023/11/02 11:04:43;;;;;;;1.00;0.70;;;;;;;14.27;65.21;94924.94;5068622;28;20479;-71
2023/11/02 11:07:10;;;;;;;1.67;0.90;;;;;;;14.11;65.50;94927.25;5088338;28;20421;-71
2023/11/02 11:09:36;;;;;;;1.50;0.90;;;;;;;14.24;64.98;94928.81;5074149;28;20432;-74
2023/11/02 11:12:02;;;;;;;2.37;0.90;;;;;;;14.15;64.99;94924.16;5054999;28;20444;-72
2023/11/02 11:14:29;;;;;;;2.13;0.80;;;;;;;14.20;64.66;94937.41;5082439;28;20431;-72
2023/11/02 11:16:59;;;;;;;1.60;0.80;;;;;;;14.31;64.87;94939.25;5074821;28;20454;-70
2023/11/02 11:19:29;;;;;;;2.00;0.80;;;;;;;14.28;64.82;94931.81;5071569;28;21030;-75
2023/11/02 11:21:55;;;;;;;1.40;0.90;;;;;;;14.28;64.56;94929.97;5072377;28;20444;-70
2023/11/02 11:24:28;;;;;;;1.23;0.80;;;;;;;14.32;64.81;94932.16;5070086;28;20420;-73
2023/11/02 11:26:56;;;;;;;2.83;1.10;;;;;;;14.36;64.71;94930.66;5075022;28;20443;-71
2023/11/02 11:29:38;;;;;;;0.97;0.80;;;;;;;14.22;64.85;94925.66;5071402;28;20471;-72
2023/11/02 11:32:14;;;;;;;1.80;1.17;;;;;;;14.21;64.65;94924.03;5075083;28;20440;-73
2023/11/02 11:35:05;;;;;;;3.17;1.03;;;;;;;14.23;64.06;94934.34;5071305;28;20504;-70
2023/11/02 11:37:51;;;;;;;1.23;0.80;;;;;;;14.28;64.35;94919.44;5075922;28;20455;-71
2023/11/02 11:40:19;;;;;;;1.03;0.70;;;;;;;14.35;64.13;94918.53;5079686;28;21226;-71
2023/11/02 11:43:12;;;;;;;1.23;0.80;;;;;;;14.21;64.20;94910.88;5065522;28;20551;-70
2023/11/02 11:45:45;;;;;;;2.30;1.70;;;;;;;14.28;64.14;94902.84;5071966;28;21401;-71